sensor_id;sensor_type;location;lat;lon;timestamp;pressure;altitude;pressure_sealevel;temperature;humidity
77027;BME280;65956;52.986;17.490;2024-01-10T00:01:17;102208.59;;;-9.30;78.97
77027;BME280;65956;52.986;17.490;2024-01-10T00:12:15;102205.50;;;-9.21;79.65
77027;BME280;65956;52.986;17.490;2024-01-10T00:16:37;102195.14;;;-9.13;80.03
77027;BME280;65956;52.986;17.490;2024-01-10T00:19:59;102193.31;;;-9.07;80.26
77027;BME280;65956;52.986;17.490;2024-01-10T00:22:29;102192.96;;;-9.04;80.30
77027;BME280;65956;52.986;17.490;2024-01-10T00:25:00;102196.88;;;-8.98;80.08
77027;BME280;65956;52.986;17.490;2024-01-10T00:28:12;102194.99;;;-8.92;80.33
77027;BME280;65956;52.986;17.490;2024-01-10T00:31:12;102202.89;;;-8.86;80.34
77027;BME280;65956;52.986;17.490;2024-01-10T00:34:37;102200.09;;;-8.81;80.85
77027;BME280;65956;52.986;17.490;2024-01-10T00:38:13;102202.04;;;-8.77;81.08
77027;BME280;65956;52.986;17.490;2024-01-10T00:41:42;102200.42;;;-8.67;80.66
77027;BME280;65956;52.986;17.490;2024-01-10T00:44:30;102195.89;;;-8.59;80.47
77027;BME280;65956;52.986;17.490;2024-01-10T00:47:57;102194.02;;;-8.50;80.74
77027;BME280;65956;52.986;17.490;2024-01-10T00:54:22;102184.84;;;-8.41;81.18
77027;BME280;65956;52.986;17.490;2024-01-10T00:57:49;102175.63;;;-8.34;80.94
77027;BME280;65956;52.986;17.490;2024-01-10T01:01:25;102169.67;;;-8.27;80.85
77027;BME280;65956;52.986;17.490;2024-01-10T01:04:18;102165.13;;;-8.23;81.02
77027;BME280;65956;52.986;17.490;2024-01-10T01:06:53;102161.26;;;-8.19;81.52
77027;BME280;65956;52.986;17.490;2024-01-10T01:09:46;102156.61;;;-8.18;81.49
77027;BME280;65956;52.986;17.490;2024-01-10T01:13:30;102148.02;;;-8.20;82.00
77027;BME280;65956;52.986;17.490;2024-01-10T01:20:00;102140.70;;;-8.35;82.59
77027;BME280;65956;52.986;17.490;2024-01-10T01:22:28;102143.92;;;-8.41;82.68
77027;BME280;65956;52.986;17.490;2024-01-10T01:25:42;102138.59;;;-8.44;82.57
77027;BME280;65956;52.986;17.490;2024-01-10T01:29:14;102134.30;;;-8.44;82.90
77027;BME280;65956;52.986;17.490;2024-01-10T01:32:11;102132.23;;;-8.45;83.39
77027;BME280;65956;52.986;17.490;2024-01-10T01:35:09;102132.86;;;-8.41;83.26
77027;BME280;65956;52.986;17.490;2024-01-10T01:37:52;102138.36;;;-8.38;82.99
77027;BME280;65956;52.986;17.490;2024-01-10T01:40:48;102141.83;;;-8.33;82.94
77027;BME280;65956;52.986;17.490;2024-01-10T01:43:28;102151.14;;;-8.29;82.99
77027;BME280;65956;52.986;17.490;2024-01-10T01:46:21;102150.29;;;-8.25;83.19
77027;BME280;65956;52.986;17.490;2024-01-10T01:49:14;102150.20;;;-8.17;83.51
77027;BME280;65956;52.986;17.490;2024-01-10T01:52:10;102146.90;;;-8.09;83.50
77027;BME280;65956;52.986;17.490;2024-01-10T01:54:42;102149.37;;;-7.99;83.83
77027;BME280;65956;52.986;17.490;2024-01-10T01:57:15;102142.71;;;-7.93;84.28
77027;BME280;65956;52.986;17.490;2024-01-10T02:00:32;102145.23;;;-7.85;84.47
77027;BME280;65956;52.986;17.490;2024-01-10T02:03:34;102143.19;;;-7.74;85.45
77027;BME280;65956;52.986;17.490;2024-01-10T02:06:59;102140.91;;;-7.64;86.09
77027;BME280;65956;52.986;17.490;2024-01-10T02:10:27;102136.80;;;-7.55;86.38
77027;BME280;65956;52.986;17.490;2024-01-10T02:13:46;102136.42;;;-7.52;86.19
77027;BME280;65956;52.986;17.490;2024-01-10T02:16:24;102137.00;;;-7.50;85.85
77027;BME280;65956;52.986;17.490;2024-01-10T02:19:22;102138.25;;;-7.50;86.26
77027;BME280;65956;52.986;17.490;2024-01-10T02:22:36;102138.20;;;-7.51;86.02
77027;BME280;65956;52.986;17.490;2024-01-10T02:25:51;102150.92;;;-7.45;86.01
77027;BME280;65956;52.986;17.490;2024-01-10T02:32:28;102151.16;;;-7.47;87.83
77027;BME280;65956;52.986;17.490;2024-01-10T02:39:12;102141.45;;;-7.46;87.46
77027;BME280;65956;52.986;17.490;2024-01-10T02:42:27;102132.09;;;-7.46;87.59
77027;BME280;65956;52.986;17.490;2024-01-10T02:45:11;102122.64;;;-7.48;87.35
77027;BME280;65956;52.986;17.490;2024-01-10T02:52:27;102118.84;;;-7.47;87.34
77027;BME280;65956;52.986;17.490;2024-01-10T02:55:05;102120.55;;;-7.46;87.53
77027;BME280;65956;52.986;17.490;2024-01-10T02:57:53;102114.21;;;-7.43;87.72
77027;BME280;65956;52.986;17.490;2024-01-10T03:05:27;102094.72;;;-7.42;88.34
77027;BME280;65956;52.986;17.490;2024-01-10T04:08:53;102090.13;;;-6.83;89.67
77027;BME280;65956;52.986;17.490;2024-01-10T04:11:20;102091.05;;;-6.78;89.44
77027;BME280;65956;52.986;17.490;2024-01-10T04:13:46;102091.38;;;-6.74;89.33
77027;BME280;65956;52.986;17.490;2024-01-10T04:16:12;102092.39;;;-6.70;89.56
77027;BME280;65956;52.986;17.490;2024-01-10T04:18:39;102090.02;;;-6.68;89.52
77027;BME280;65956;52.986;17.490;2024-01-10T04:21:05;102086.72;;;-6.68;89.78
77027;BME280;65956;52.986;17.490;2024-01-10T04:23:31;102081.13;;;-6.65;89.53
77027;BME280;65956;52.986;17.490;2024-01-10T04:26:00;102083.98;;;-6.64;89.91
77027;BME280;65956;52.986;17.490;2024-01-10T04:28:28;102081.39;;;-6.61;89.94
77027;BME280;65956;52.986;17.490;2024-01-10T04:30:55;102073.63;;;-6.59;90.18
77027;BME280;65956;52.986;17.490;2024-01-10T04:33:21;102071.52;;;-6.56;90.05
77027;BME280;65956;52.986;17.490;2024-01-10T04:35:47;102072.10;;;-6.56;90.72
77027;BME280;65956;52.986;17.490;2024-01-10T04:38:13;102074.61;;;-6.54;90.66
77027;BME280;65956;52.986;17.490;2024-01-10T04:40:39;102068.88;;;-6.52;90.61
77027;BME280;65956;52.986;17.490;2024-01-10T04:43:05;102071.08;;;-6.51;90.84
77027;BME280;65956;52.986;17.490;2024-01-10T04:45:31;102065.04;;;-6.50;90.61
77027;BME280;65956;52.986;17.490;2024-01-10T04:47:57;102066.20;;;-6.50;90.85
77027;BME280;65956;52.986;17.490;2024-01-10T04:50:23;102067.27;;;-6.45;90.79
77027;BME280;65956;52.986;17.490;2024-01-10T04:52:49;102067.28;;;-6.43;91.00
77027;BME280;65956;52.986;17.490;2024-01-10T04:55:15;102060.94;;;-6.43;91.18
77027;BME280;65956;52.986;17.490;2024-01-10T04:57:42;102058.70;;;-6.43;91.41
77027;BME280;65956;52.986;17.490;2024-01-10T05:00:08;102053.23;;;-6.42;91.07
77027;BME280;65956;52.986;17.490;2024-01-10T05:02:34;102049.70;;;-6.44;91.61
77027;BME280;65956;52.986;17.490;2024-01-10T05:05:01;102048.56;;;-6.44;91.97
77027;BME280;65956;52.986;17.490;2024-01-10T05:07:27;102043.48;;;-6.46;92.40
77027;BME280;65956;52.986;17.490;2024-01-10T05:09:53;102040.23;;;-6.48;92.71
77027;BME280;65956;52.986;17.490;2024-01-10T05:12:19;102036.69;;;-6.50;92.84
77027;BME280;65956;52.986;17.490;2024-01-10T05:14:45;102042.34;;;-6.49;92.65
77027;BME280;65956;52.986;17.490;2024-01-10T05:17:11;102035.31;;;-6.47;92.53
77027;BME280;65956;52.986;17.490;2024-01-10T05:19:37;102030.30;;;-6.45;92.29
77027;BME280;65956;52.986;17.490;2024-01-10T05:22:04;102031.16;;;-6.42;92.57
77027;BME280;65956;52.986;17.490;2024-01-10T05:24:30;102033.99;;;-6.40;92.39
77027;BME280;65956;52.986;17.490;2024-01-10T05:26:56;102041.98;;;-6.38;92.39
77027;BME280;65956;52.986;17.490;2024-01-10T05:29:23;102035.26;;;-6.37;92.26
77027;BME280;65956;52.986;17.490;2024-01-10T05:31:50;102033.09;;;-6.36;92.14
77027;BME280;65956;52.986;17.490;2024-01-10T05:34:16;102032.02;;;-6.34;91.65
77027;BME280;65956;52.986;17.490;2024-01-10T05:36:42;102035.27;;;-6.31;91.65
77027;BME280;65956;52.986;17.490;2024-01-10T05:39:09;102041.71;;;-6.30;91.85
77027;BME280;65956;52.986;17.490;2024-01-10T05:41:35;102044.21;;;-6.28;91.70
77027;BME280;65956;52.986;17.490;2024-01-10T05:44:01;102041.30;;;-6.29;91.79
77027;BME280;65956;52.986;17.490;2024-01-10T05:46:30;102043.63;;;-6.28;91.49
77027;BME280;65956;52.986;17.490;2024-01-10T05:48:57;102044.52;;;-6.25;91.33
77027;BME280;65956;52.986;17.490;2024-01-10T05:51:23;102045.10;;;-6.24;91.33
77027;BME280;65956;52.986;17.490;2024-01-10T05:53:49;102039.91;;;-6.22;91.55
77027;BME280;65956;52.986;17.490;2024-01-10T05:56:15;102043.91;;;-6.20;91.32
77027;BME280;65956;52.986;17.490;2024-01-10T05:58:41;102042.81;;;-6.17;91.46
77027;BME280;65956;52.986;17.490;2024-01-10T06:01:07;102041.14;;;-6.18;91.68
77027;BME280;65956;52.986;17.490;2024-01-10T06:03:36;102045.78;;;-6.20;91.59
77027;BME280;65956;52.986;17.490;2024-01-10T06:06:04;102047.24;;;-6.19;91.69
77027;BME280;65956;52.986;17.490;2024-01-10T06:08:30;102048.63;;;-6.16;91.78
77027;BME280;65956;52.986;17.490;2024-01-10T06:10:56;102046.77;;;-6.14;91.58
77027;BME280;65956;52.986;17.490;2024-01-10T06:13:22;102043.15;;;-6.09;91.77
77027;BME280;65956;52.986;17.490;2024-01-10T06:15:48;102041.60;;;-6.03;91.63
77027;BME280;65956;52.986;17.490;2024-01-10T06:18:14;102041.02;;;-5.98;91.73
77027;BME280;65956;52.986;17.490;2024-01-10T06:20:41;102037.23;;;-5.94;91.89
77027;BME280;65956;52.986;17.490;2024-01-10T06:23:07;102037.81;;;-5.93;92.14
77027;BME280;65956;52.986;17.490;2024-01-10T06:25:33;102037.38;;;-5.91;92.21
77027;BME280;65956;52.986;17.490;2024-01-10T06:27:59;102034.23;;;-5.88;92.16
77027;BME280;65956;52.986;17.490;2024-01-10T06:30:26;102028.28;;;-5.87;92.35
77027;BME280;65956;52.986;17.490;2024-01-10T06:32:52;102029.70;;;-5.87;92.38
77027;BME280;65956;52.986;17.490;2024-01-10T06:35:18;102033.47;;;-5.85;92.64
77027;BME280;65956;52.986;17.490;2024-01-10T06:37:44;102033.69;;;-5.84;92.31
77027;BME280;65956;52.986;17.490;2024-01-10T06:40:11;102034.59;;;-5.80;92.32
77027;BME280;65956;52.986;17.490;2024-01-10T06:42:37;102034.16;;;-5.76;92.25
77027;BME280;65956;52.986;17.490;2024-01-10T06:45:06;102030.36;;;-5.71;92.23
77027;BME280;65956;52.986;17.490;2024-01-10T06:47:33;102031.11;;;-5.65;92.27
77027;BME280;65956;52.986;17.490;2024-01-10T06:49:59;102027.81;;;-5.57;92.36
77027;BME280;65956;52.986;17.490;2024-01-10T06:52:26;102031.76;;;-5.51;92.46
77027;BME280;65956;52.986;17.490;2024-01-10T06:54:52;102029.89;;;-5.48;92.97
77027;BME280;65956;52.986;17.490;2024-01-10T06:57:18;102033.66;;;-5.44;93.04
77027;BME280;65956;52.986;17.490;2024-01-10T06:59:44;102041.01;;;-5.40;92.82
77027;BME280;65956;52.986;17.490;2024-01-10T07:02:10;102045.80;;;-5.35;92.62
77027;BME280;65956;52.986;17.490;2024-01-10T07:04:37;102054.17;;;-5.32;92.53
77027;BME280;65956;52.986;17.490;2024-01-10T07:07:04;102052.97;;;-5.31;92.35
77027;BME280;65956;52.986;17.490;2024-01-10T07:09:30;102059.15;;;-5.31;92.58
77027;BME280;65956;52.986;17.490;2024-01-10T07:11:56;102056.73;;;-5.32;92.42
77027;BME280;65956;52.986;17.490;2024-01-10T07:14:22;102054.05;;;-5.31;92.14
77027;BME280;65956;52.986;17.490;2024-01-10T07:16:48;102057.02;;;-5.32;92.61
77027;BME280;65956;52.986;17.490;2024-01-10T07:19:14;102051.10;;;-5.30;92.65
77027;BME280;65956;52.986;17.490;2024-01-10T07:21:41;102048.95;;;-5.27;92.57
77027;BME280;65956;52.986;17.490;2024-01-10T07:24:08;102050.84;;;-5.24;92.98
77027;BME280;65956;52.986;17.490;2024-01-10T07:26:38;102045.30;;;-5.20;92.73
77027;BME280;65956;52.986;17.490;2024-01-10T07:29:05;102046.21;;;-5.17;93.08
77027;BME280;65956;52.986;17.490;2024-01-10T07:31:34;102046.53;;;-5.14;93.18
77027;BME280;65956;52.986;17.490;2024-01-10T07:34:01;102042.54;;;-5.10;92.95
77027;BME280;65956;52.986;17.490;2024-01-10T07:36:32;102037.88;;;-5.07;93.08
77027;BME280;65956;52.986;17.490;2024-01-10T07:39:02;102036.84;;;-5.03;93.47
77027;BME280;65956;52.986;17.490;2024-01-10T07:41:28;102032.92;;;-5.00;93.27
77027;BME280;65956;52.986;17.490;2024-01-10T07:43:56;102032.38;;;-4.96;93.20
77027;BME280;65956;52.986;17.490;2024-01-10T07:46:23;102038.42;;;-4.92;93.14
77027;BME280;65956;52.986;17.490;2024-01-10T07:48:49;102040.86;;;-4.89;93.17
77027;BME280;65956;52.986;17.490;2024-01-10T07:51:15;102041.11;;;-4.86;93.14
77027;BME280;65956;52.986;17.490;2024-01-10T07:53:41;102039.21;;;-4.85;93.40
77027;BME280;65956;52.986;17.490;2024-01-10T07:56:07;102040.31;;;-4.83;93.36
77027;BME280;65956;52.986;17.490;2024-01-10T07:58:33;102044.02;;;-4.81;93.28
77027;BME280;65956;52.986;17.490;2024-01-10T08:01:00;102041.98;;;-4.78;93.17
77027;BME280;65956;52.986;17.490;2024-01-10T08:03:26;102035.46;;;-4.76;93.49
77027;BME280;65956;52.986;17.490;2024-01-10T08:05:52;102040.53;;;-4.74;93.23
77027;BME280;65956;52.986;17.490;2024-01-10T08:08:18;102042.07;;;-4.72;93.82
77027;BME280;65956;52.986;17.490;2024-01-10T08:10:47;102045.17;;;-4.70;93.40
77027;BME280;65956;52.986;17.490;2024-01-10T08:13:16;102048.06;;;-4.67;94.10
77027;BME280;65956;52.986;17.490;2024-01-10T08:15:49;102048.97;;;-4.66;94.09
77027;BME280;65956;52.986;17.490;2024-01-10T08:18:23;102055.25;;;-4.63;94.00
77027;BME280;65956;52.986;17.490;2024-01-10T08:20:50;102054.27;;;-4.62;94.57
77027;BME280;65956;52.986;17.490;2024-01-10T08:23:16;102057.04;;;-4.60;94.33
77027;BME280;65956;52.986;17.490;2024-01-10T08:25:42;102057.34;;;-4.57;94.18
77027;BME280;65956;52.986;17.490;2024-01-10T08:28:10;102062.73;;;-4.48;94.15
77027;BME280;65956;52.986;17.490;2024-01-10T08:30:38;102064.45;;;-4.42;94.32
77027;BME280;65956;52.986;17.490;2024-01-10T08:33:04;102061.98;;;-4.38;94.13
77027;BME280;65956;52.986;17.490;2024-01-10T08:35:30;102060.91;;;-4.36;94.09
77027;BME280;65956;52.986;17.490;2024-01-10T08:37:56;102069.33;;;-4.34;94.09
77027;BME280;65956;52.986;17.490;2024-01-10T08:40:23;102064.38;;;-4.34;94.56
77027;BME280;65956;52.986;17.490;2024-01-10T08:42:52;102062.72;;;-4.31;94.91
77027;BME280;65956;52.986;17.490;2024-01-10T08:45:18;102054.48;;;-4.28;94.89
77027;BME280;65956;52.986;17.490;2024-01-10T08:47:44;102057.12;;;-4.26;95.22
77027;BME280;65956;52.986;17.490;2024-01-10T08:50:11;102061.30;;;-4.25;94.99
77027;BME280;65956;52.986;17.490;2024-01-10T08:52:37;102056.59;;;-4.24;95.79
77027;BME280;65956;52.986;17.490;2024-01-10T08:55:05;102064.53;;;-4.23;95.50
77027;BME280;65956;52.986;17.490;2024-01-10T08:57:32;102066.48;;;-4.22;96.15
77027;BME280;65956;52.986;17.490;2024-01-10T08:59:58;102071.94;;;-4.22;96.24
77027;BME280;65956;52.986;17.490;2024-01-10T09:02:24;102066.70;;;-4.26;96.75
77027;BME280;65956;52.986;17.490;2024-01-10T09:04:50;102071.10;;;-4.29;96.48
77027;BME280;65956;52.986;17.490;2024-01-10T09:07:16;102075.99;;;-4.29;97.06
77027;BME280;65956;52.986;17.490;2024-01-10T09:09:44;102071.64;;;-4.31;97.43
77027;BME280;65956;52.986;17.490;2024-01-10T09:12:10;102070.73;;;-4.32;97.75
77027;BME280;65956;52.986;17.490;2024-01-10T09:14:36;102067.15;;;-4.28;97.74
77027;BME280;65956;52.986;17.490;2024-01-10T09:17:02;102071.09;;;-4.27;97.97
77027;BME280;65956;52.986;17.490;2024-01-10T09:19:30;102069.31;;;-4.26;98.12
77027;BME280;65956;52.986;17.490;2024-01-10T09:21:59;102064.71;;;-4.24;98.00
77027;BME280;65956;52.986;17.490;2024-01-10T09:24:25;102068.36;;;-4.25;97.88
77027;BME280;65956;52.986;17.490;2024-01-10T09:26:52;102062.62;;;-4.24;97.55
77027;BME280;65956;52.986;17.490;2024-01-10T09:29:19;102066.27;;;-4.28;98.06
77027;BME280;65956;52.986;17.490;2024-01-10T09:31:45;102065.17;;;-4.33;97.88
77027;BME280;65956;52.986;17.490;2024-01-10T09:34:11;102064.84;;;-4.39;97.93
77027;BME280;65956;52.986;17.490;2024-01-10T09:36:38;102065.95;;;-4.40;98.45
77027;BME280;65956;52.986;17.490;2024-01-10T09:39:04;102064.61;;;-4.37;98.39
77027;BME280;65956;52.986;17.490;2024-01-10T09:41:35;102060.13;;;-4.40;98.10
77027;BME280;65956;52.986;17.490;2024-01-10T09:44:06;102060.45;;;-4.48;98.47
77027;BME280;65956;52.986;17.490;2024-01-10T09:46:32;102056.56;;;-4.55;98.51
77027;BME280;65956;52.986;17.490;2024-01-10T09:49:00;102056.96;;;-4.54;98.64
77027;BME280;65956;52.986;17.490;2024-01-10T09:51:27;102060.60;;;-4.47;98.86
77027;BME280;65956;52.986;17.490;2024-01-10T09:53:55;102060.95;;;-4.45;98.71
77027;BME280;65956;52.986;17.490;2024-01-10T09:56:23;102056.92;;;-4.47;98.49
77027;BME280;65956;52.986;17.490;2024-01-10T09:58:50;102051.05;;;-4.47;98.53
77027;BME280;65956;52.986;17.490;2024-01-10T10:01:20;102047.30;;;-4.48;98.46
77027;BME280;65956;52.986;17.490;2024-01-10T10:03:48;102047.94;;;-4.42;98.24
77027;BME280;65956;52.986;17.490;2024-01-10T10:06:16;102040.33;;;-4.40;98.03
77027;BME280;65956;52.986;17.490;2024-01-10T10:08:42;102037.40;;;-4.34;97.79
77027;BME280;65956;52.986;17.490;2024-01-10T10:11:12;102035.27;;;-4.26;97.92
77027;BME280;65956;52.986;17.490;2024-01-10T10:13:42;102036.73;;;-4.18;97.70
77027;BME280;65956;52.986;17.490;2024-01-10T10:16:08;102036.59;;;-4.11;97.33
77027;BME280;65956;52.986;17.490;2024-01-10T10:18:39;102031.43;;;-4.08;96.93
77027;BME280;65956;52.986;17.490;2024-01-10T10:21:12;102032.50;;;-4.09;96.34
77027;BME280;65956;52.986;17.490;2024-01-10T10:23:40;102033.56;;;-4.05;96.00
77027;BME280;65956;52.986;17.490;2024-01-10T10:26:14;102032.17;;;-4.04;95.89
77027;BME280;65956;52.986;17.490;2024-01-10T10:28:48;102025.31;;;-4.04;95.34
77027;BME280;65956;52.986;17.490;2024-01-10T10:31:16;102022.84;;;-4.03;95.06
77027;BME280;65956;52.986;17.490;2024-01-10T10:33:43;102020.65;;;-4.02;94.99
77027;BME280;65956;52.986;17.490;2024-01-10T10:36:10;102017.23;;;-4.00;94.49
77027;BME280;65956;52.986;17.490;2024-01-10T10:38:36;102023.95;;;-3.98;94.51
77027;BME280;65956;52.986;17.490;2024-01-10T10:41:06;102025.08;;;-3.90;94.25
77027;BME280;65956;52.986;17.490;2024-01-10T10:43:41;102013.88;;;-3.90;94.01
77027;BME280;65956;52.986;17.490;2024-01-10T10:46:10;102019.73;;;-3.92;93.19
77027;BME280;65956;52.986;17.490;2024-01-10T10:48:38;102016.43;;;-3.87;93.66
77027;BME280;65956;52.986;17.490;2024-01-10T10:51:56;102014.39;;;-3.73;93.69
77027;BME280;65956;52.986;17.490;2024-01-10T10:54:16;102005.58;;;-3.70;93.14
77027;BME280;65956;52.986;17.490;2024-01-10T11:03:14;102015.46;;;-3.52;92.51
77027;BME280;65956;52.986;17.490;2024-01-10T11:05:41;102014.09;;;-3.60;91.88
77027;BME280;65956;52.986;17.490;2024-01-10T11:08:12;102004.02;;;-3.64;91.63
77027;BME280;65956;52.986;17.490;2024-01-10T11:10:43;102006.34;;;-3.61;91.84
77027;BME280;65956;52.986;17.490;2024-01-10T11:21:42;102023.70;;;-3.61;90.25
77027;BME280;65956;52.986;17.490;2024-01-10T11:24:16;102025.69;;;-3.55;90.66
77027;BME280;65956;52.986;17.490;2024-01-10T11:26:45;102018.20;;;-3.66;90.09
77027;BME280;65956;52.986;17.490;2024-01-10T11:29:11;102016.25;;;-3.70;90.18
77027;BME280;65956;52.986;17.490;2024-01-10T11:31:38;102011.36;;;-3.68;90.28
77027;BME280;65956;52.986;17.490;2024-01-10T11:34:05;102006.29;;;-3.65;90.49
77027;BME280;65956;52.986;17.490;2024-01-10T11:36:32;102007.92;;;-3.68;90.11
77027;BME280;65956;52.986;17.490;2024-01-10T11:38:59;101999.89;;;-3.73;89.92
77027;BME280;65956;52.986;17.490;2024-01-10T11:41:33;101997.27;;;-3.85;89.67
77027;BME280;65956;52.986;17.490;2024-01-10T11:46:52;102000.95;;;-3.88;90.10
77027;BME280;65956;52.986;17.490;2024-01-10T11:49:19;102005.23;;;-3.84;90.11
77027;BME280;65956;52.986;17.490;2024-01-10T11:51:57;102001.77;;;-3.79;90.02
77027;BME280;65956;52.986;17.490;2024-01-10T11:57:02;101998.20;;;-3.89;90.00
77027;BME280;65956;52.986;17.490;2024-01-10T11:59:29;101994.16;;;-3.88;89.92
77027;BME280;65956;52.986;17.490;2024-01-10T12:01:59;101990.34;;;-3.90;89.89
77027;BME280;65956;52.986;17.490;2024-01-10T12:04:25;101980.74;;;-3.83;90.12
77027;BME280;65956;52.986;17.490;2024-01-10T12:06:56;101977.45;;;-3.76;90.00
77027;BME280;65956;52.986;17.490;2024-01-10T12:09:23;101969.94;;;-3.71;89.77
77027;BME280;65956;52.986;17.490;2024-01-10T12:11:50;101969.02;;;-3.71;89.59
77027;BME280;65956;52.986;17.490;2024-01-10T12:14:17;101967.07;;;-3.70;89.17
77027;BME280;65956;52.986;17.490;2024-01-10T12:16:43;101966.08;;;-3.66;89.50
77027;BME280;65956;52.986;17.490;2024-01-10T12:19:09;101960.15;;;-3.62;89.50
77027;BME280;65956;52.986;17.490;2024-01-10T12:21:36;101956.96;;;-3.67;89.81
77027;BME280;65956;52.986;17.490;2024-01-10T12:24:05;101953.54;;;-3.63;89.44
77027;BME280;65956;52.986;17.490;2024-01-10T12:26:32;101956.08;;;-3.60;88.68
77027;BME280;65956;52.986;17.490;2024-01-10T12:28:59;101950.23;;;-3.55;88.69
77027;BME280;65956;52.986;17.490;2024-01-10T12:31:29;101943.63;;;-3.53;88.52
77027;BME280;65956;52.986;17.490;2024-01-10T12:33:56;101945.91;;;-3.51;88.16
77027;BME280;65956;52.986;17.490;2024-01-10T12:36:22;101947.45;;;-3.48;87.93
77027;BME280;65956;52.986;17.490;2024-01-10T12:38:49;101944.35;;;-3.48;88.12
77027;BME280;65956;52.986;17.490;2024-01-10T12:41:18;101942.15;;;-3.49;87.92
77027;BME280;65956;52.986;17.490;2024-01-10T12:43:54;101945.16;;;-3.50;87.75
77027;BME280;65956;52.986;17.490;2024-01-10T13:01:31;101929.54;;;-3.57;86.93
77027;BME280;65956;52.986;17.490;2024-01-10T13:07:42;101931.32;;;-3.48;86.61
77027;BME280;65956;52.986;17.490;2024-01-10T13:11:04;101931.12;;;-3.40;86.98
77027;BME280;65956;52.986;17.490;2024-01-10T13:14:34;101927.52;;;-3.27;85.96
77027;BME280;65956;52.986;17.490;2024-01-10T13:17:07;101922.24;;;-3.34;85.30
77027;BME280;65956;52.986;17.490;2024-01-10T13:19:39;101920.64;;;-3.38;85.82
77027;BME280;65956;52.986;17.490;2024-01-10T13:22:17;101924.16;;;-3.46;85.42
77027;BME280;65956;52.986;17.490;2024-01-10T13:24:59;101917.31;;;-3.56;85.66
77027;BME280;65956;52.986;17.490;2024-01-10T13:27:30;101917.36;;;-3.61;85.83
77027;BME280;65956;52.986;17.490;2024-01-10T14:12:54;101894.75;;;-4.84;91.99
77027;BME280;65956;52.986;17.490;2024-01-10T14:17:12;101892.67;;;-4.88;91.80
77027;BME280;65956;52.986;17.490;2024-01-10T14:19:56;101887.98;;;-4.99;92.33
77027;BME280;65956;52.986;17.490;2024-01-10T14:22:30;101895.35;;;-5.06;92.42
77027;BME280;65956;52.986;17.490;2024-01-10T14:25:05;101894.40;;;-5.09;93.11
77027;BME280;65956;52.986;17.490;2024-01-10T14:27:32;101895.09;;;-5.11;93.15
77027;BME280;65956;52.986;17.490;2024-01-10T14:30:06;101891.40;;;-5.13;93.50
77027;BME280;65956;52.986;17.490;2024-01-10T14:32:43;101884.65;;;-5.15;94.07
77027;BME280;65956;52.986;17.490;2024-01-10T14:35:13;101880.95;;;-5.19;94.24
77027;BME280;65956;52.986;17.490;2024-01-10T14:37:39;101877.25;;;-5.24;94.82
77027;BME280;65956;52.986;17.490;2024-01-10T14:40:05;101873.66;;;-5.24;95.15
77027;BME280;65956;52.986;17.490;2024-01-10T14:42:32;101876.81;;;-5.26;95.40
77027;BME280;65956;52.986;17.490;2024-01-10T14:45:01;101879.31;;;-5.28;95.49
77027;BME280;65956;52.986;17.490;2024-01-10T14:47:27;101879.20;;;-5.32;95.46
77027;BME280;65956;52.986;17.490;2024-01-10T14:49:54;101876.65;;;-5.35;95.71
77027;BME280;65956;52.986;17.490;2024-01-10T14:52:21;101876.02;;;-5.37;95.95
77027;BME280;65956;52.986;17.490;2024-01-10T14:54:48;101876.42;;;-5.36;96.06
77027;BME280;65956;52.986;17.490;2024-01-10T14:57:14;101873.75;;;-5.36;96.14
77027;BME280;65956;52.986;17.490;2024-01-10T14:59:42;101867.44;;;-5.38;96.39
77027;BME280;65956;52.986;17.490;2024-01-10T15:02:08;101868.66;;;-5.41;96.47
77027;BME280;65956;52.986;17.490;2024-01-10T15:04:38;101865.04;;;-5.45;96.62
77027;BME280;65956;52.986;17.490;2024-01-10T15:07:05;101861.63;;;-5.46;97.35
77027;BME280;65956;52.986;17.490;2024-01-10T15:09:32;101863.05;;;-5.48;97.37
77027;BME280;65956;52.986;17.490;2024-01-10T15:11:58;101864.38;;;-5.49;97.81
77027;BME280;65956;52.986;17.490;2024-01-10T15:14:24;101866.81;;;-5.51;97.89
77027;BME280;65956;52.986;17.490;2024-01-10T15:16:50;101857.55;;;-5.53;98.04
77027;BME280;65956;52.986;17.490;2024-01-10T15:19:16;101854.09;;;-5.52;98.29
77027;BME280;65956;52.986;17.490;2024-01-10T15:21:44;101854.08;;;-5.50;97.85
77027;BME280;65956;52.986;17.490;2024-01-10T15:24:10;101853.15;;;-5.49;97.81
77027;BME280;65956;52.986;17.490;2024-01-10T15:26:36;101851.40;;;-5.50;97.98
77027;BME280;65956;52.986;17.490;2024-01-10T15:29:03;101854.65;;;-5.53;97.89
77027;BME280;65956;52.986;17.490;2024-01-10T15:31:30;101854.67;;;-5.56;98.26
77027;BME280;65956;52.986;17.490;2024-01-10T15:33:57;101854.47;;;-5.55;98.39
77027;BME280;65956;52.986;17.490;2024-01-10T15:36:23;101849.84;;;-5.56;98.30
77027;BME280;65956;52.986;17.490;2024-01-10T15:38:50;101846.02;;;-5.55;98.13
77027;BME280;65956;52.986;17.490;2024-01-10T15:41:16;101842.86;;;-5.55;97.94
77027;BME280;65956;52.986;17.490;2024-01-10T15:43:42;101844.99;;;-5.56;97.94
77027;BME280;65956;52.986;17.490;2024-01-10T15:46:09;101842.25;;;-5.57;98.12
77027;BME280;65956;52.986;17.490;2024-01-10T15:48:38;101843.46;;;-5.57;98.54
77027;BME280;65956;52.986;17.490;2024-01-10T15:51:05;101847.19;;;-5.58;98.38
77027;BME280;65956;52.986;17.490;2024-01-10T15:53:31;101843.29;;;-5.59;98.50
77027;BME280;65956;52.986;17.490;2024-01-10T15:55:58;101841.09;;;-5.62;98.39
77027;BME280;65956;52.986;17.490;2024-01-10T15:58:25;101842.05;;;-5.64;98.87
77027;BME280;65956;52.986;17.490;2024-01-10T16:00:51;101836.29;;;-5.67;98.84
77027;BME280;65956;52.986;17.490;2024-01-10T16:03:17;101833.16;;;-5.69;99.01
77027;BME280;65956;52.986;17.490;2024-01-10T16:05:44;101829.48;;;-5.69;99.12
77027;BME280;65956;52.986;17.490;2024-01-10T16:08:10;101826.56;;;-5.68;99.10
77027;BME280;65956;52.986;17.490;2024-01-10T16:10:36;101827.36;;;-5.69;99.21